Tosei — JK5053 — position and weather

sailwx.info

Track history (hours):
 
Tides and Currents Weather Stations Pressure Air Temp Water Temp Dewpoint Dewpoint Depression Visibility Wind Speed Wind Dir Waves Ship Positions

Tosei

Last reported at 2017-Dec-10 21:41 UTC. Time now 2017-Dec-14 00:17 UTC.
Position N 35°38' E 139°59'.

Length 85 m; draft 4 m.

MMSI: 431400992.

Date/timePositionNaut miles runAvg speedWind from/ knotsBaromVisibWave heightAir tempDewpointWater temp
2017-Dec-10 21:41N 35°38' E 139°59'213.7
2017-Dec-10 21:31N 35°36' E 139°59'714.0
2017-Dec-10 21:01N 35°30' E 139°54'714.2
2017-Dec-10 20:31N 35°25' E 139°48'611.7
2017-Dec-10 20:00N 35°20' E 139°44'611.3
2017-Dec-10 19:31N 35°15' E 139°47'713.0
2017-Dec-10 19:01N 35°08' E 139°46'713.4
2017-Dec-10 18:31N 35°02' E 139°42'612.6
2017-Dec-10 18:00N 34°57' E 139°38'814.1
2017-Dec-10 17:28N 34°53' E 139°30'714.8
2017-Dec-10 17:00N 34°51' E 139°22'714.9
2017-Dec-10 16:30N 34°47' E 139°15'714.5
2017-Dec-10 15:59N 34°41' E 139°09'713.6
2017-Dec-10 15:27N 34°36' E 139°02'613.9
2017-Dec-10 15:00N 34°33' E 138°56'913.9
2017-Dec-10 14:23N 34°31' E 138°46'614.5
2017-Dec-10 13:59N 34°31' E 138°39'714.0
2017-Dec-10 13:30N 34°30' E 138°30'33411.9
2017-Dec-09 09:27N 33°24' E 131°56'1514.8
2017-Dec-09 08:24N 33°39' E 131°51'814.6
2017-Dec-09 07:53N 33°46' E 131°48'514.4
2017-Dec-09 07:30N 33°52' E 131°45'714.5
2017-Dec-09 07:00N 33°58' E 131°42'510.3
2017-Dec-09 06:30N 34°03' E 131°44'0 0.7
2017-Dec-09 06:00N 34°03' E 131°44'0 0.0
2017-Dec-09 05:30N 34°03' E 131°44'0 0.0
2017-Dec-09 05:00N 34°03' E 131°44'0 0.0
2017-Dec-09 04:29N 34°03' E 131°44'0 0.0
2017-Dec-09 04:00N 34°03' E 131°44'0 0.0
2017-Dec-09 03:30N 34°03' E 131°44'0 0.0
2017-Dec-09 03:00N 34°03' E 131°44'0 0.0
2017-Dec-09 02:30N 34°03' E 131°44'0 0.0
2017-Dec-09 02:00N 34°03' E 131°44'0 0.0
2017-Dec-09 01:30N 34°03' E 131°44'0 0.0
2017-Dec-09 01:00N 34°03' E 131°44'0 0.0
2017-Dec-09 00:30N 34°03' E 131°44'0 0.0
2017-Dec-09 00:00N 34°03' E 131°44'0 0.0
2017-Dec-08 23:28N 34°03' E 131°44'0 0.0
2017-Dec-08 23:00N 34°03' E 131°44'0 0.0
2017-Dec-08 22:30N 34°03' E 131°44'0 1.0
2017-Dec-08 22:00N 34°03' E 131°44'510.2
2017-Dec-08 21:30N 33°58' E 131°42'713.9
2017-Dec-08 21:00N 33°52' E 131°46'713.8
2017-Dec-08 20:30N 33°46' E 131°48'713.4
2017-Dec-08 19:59N 33°39' E 131°51'612.7
2017-Dec-08 19:30N 33°33' E 131°53'712.6
2017-Dec-08 18:58N 33°27' E 131°56'712.9
2017-Dec-08 18:27N 33°20' E 131°59'34912.5
2017-Dec-07 14:33N 34°31' E 138°51'112.3
2017-Dec-07 14:30N 34°31' E 138°52'510.8
2017-Dec-07 14:00N 34°33' E 138°58'712.6
2017-Dec-07 13:28N 34°38' E 139°04'913.1
2017-Dec-07 12:45N 34°45' E 139°12'1013.3
2017-Dec-07 11:59N 34°51' E 139°21'713.3
2017-Dec-07 11:27N 34°56' E 139°28'613.0
2017-Dec-07 11:00N 35°00' E 139°33'713.6
2017-Dec-07 10:31N 35°05' E 139°39'714.2
2017-Dec-07 10:01N 35°10' E 139°45'612.5
2017-Dec-07 09:30N 35°16' E 139°46'612.2
2017-Dec-07 09:00N 35°22' E 139°42'713.2
2017-Dec-07 08:30N 35°27' E 139°47'714.2
2017-Dec-07 08:00N 35°32' E 139°53'713.8
2017-Dec-07 07:30N 35°38' E 139°58'3 0.4
2017-Dec-06 23:42N 35°41' E 139°59'1 3.7
2017-Dec-06 23:22N 35°39' E 139°59'412.8
2017-Dec-06 23:01N 35°35' E 139°58'713.4
2017-Dec-06 22:30N 35°30' E 139°53'713.4
2017-Dec-06 22:01N 35°25' E 139°47'510.8
2017-Dec-06 21:30N 35°20' E 139°45'5 9.9
2017-Dec-06 21:00N 35°16' E 139°47'  
2017-Dec-03 14:12N 34°32' E 138°51'212.3
2017-Dec-03 14:00N 34°32' E 138°54'712.3
2017-Dec-03 13:26N 34°36' E 139°01'512.6
2017-Dec-03 13:00N 34°40' E 139°06'612.3
2017-Dec-03 12:30N 34°44' E 139°11'612.3
2017-Dec-03 11:58N 34°48' E 139°18'612.7
2017-Dec-03 11:29N 34°52' E 139°23'613.0
2017-Dec-03 11:00N 34°56' E 139°29'612.8
2017-Dec-03 10:30N 35°01' E 139°34'713.3
2017-Dec-03 10:00N 35°05' E 139°40'714.5
2017-Dec-03 09:30N 35°11' E 139°46'612.9
2017-Dec-03 09:00N 35°17' E 139°45'612.5
2017-Dec-03 08:30N 35°23' E 139°42'713.8
2017-Dec-03 08:00N 35°28' E 139°49'814.2
2017-Dec-03 07:29N 35°33' E 139°55'713.3
2017-Dec-03 06:59N 35°39' E 139°59'2 0.3
2017-Dec-03 00:09N 35°41' E 139°59'0 0.0
2017-Dec-02 23:59N 35°41' E 139°59'0 0.0
2017-Dec-02 23:29N 35°41' E 139°59'0 0.0
2017-Dec-02 23:00N 35°41' E 139°59'0 0.0
2017-Dec-02 22:30N 35°41' E 139°59'1 1.0
2017-Dec-02 22:00N 35°40' E 139°59'611.9
2017-Dec-02 21:31N 35°35' E 139°58'713.1
2017-Dec-02 21:01N 35°30' E 139°53'713.2
2017-Dec-02 20:30N 35°25' E 139°47'612.7
2017-Dec-02 20:00N 35°19' E 139°44'611.9
2017-Dec-02 19:30N 35°14' E 139°47'612.7
2017-Dec-02 19:01N 35°07' E 139°45'612.8
2017-Dec-02 18:30N 35°02' E 139°41'713.3
2017-Dec-02 18:00N 34°58' E 139°35'1014.7
2017-Dec-02 17:18N 34°52' E 139°24'715.2
2017-Dec-02 16:51N 34°48' E 139°18'514.0
2017-Dec-02 16:30N 34°45' E 139°13'814.1
2017-Dec-02 15:57N 34°40' E 139°06'713.2
2017-Dec-02 15:26N 34°35' E 138°60'613.6
2017-Dec-02 15:00N 34°32' E 138°54'814.6
2017-Dec-02 14:28N 34°31' E 138°44'714.2
2017-Dec-02 14:00N 34°30' E 138°36'814.3
2017-Dec-02 13:27N 34°29' E 138°27'32912.5
2017-Dec-01 11:09N 33°21' E 131°59'214.8
2017-Dec-01 10:59N 33°23' E 131°58'1814.3
2017-Dec-01 09:42N 33°40' E 131°49'314.1
2017-Dec-01 09:28N 33°43' E 131°47'714.0
2017-Dec-01 09:00N 33°50' E 131°46'714.3
2017-Dec-01 08:30N 33°56' E 131°43'612.1
2017-Dec-01 08:00N 34°02' E 131°42'2 4.5
2017-Dec-01 07:30N 34°03' E 131°44'0 0.0
2017-Dec-01 07:00N 34°03' E 131°44'0 0.0
2017-Dec-01 06:30N 34°03' E 131°44'0 0.0
2017-Dec-01 06:00N 34°03' E 131°44'0 0.0
2017-Dec-01 05:30N 34°03' E 131°44'0 0.0
2017-Dec-01 05:00N 34°03' E 131°44'0 0.0
2017-Dec-01 04:30N 34°03' E 131°44'0 0.0
2017-Dec-01 04:00N 34°03' E 131°44'0 0.0
2017-Dec-01 03:30N 34°03' E 131°44'0 0.0
2017-Dec-01 03:00N 34°03' E 131°44'0 0.0
2017-Dec-01 02:30N 34°03' E 131°44'0 0.0
2017-Dec-01 02:00N 34°03' E 131°44'0 0.0
2017-Dec-01 01:30N 34°03' E 131°44'0 0.0
2017-Dec-01 01:00N 34°03' E 131°44'0 0.0
2017-Dec-01 00:30N 34°03' E 131°44'0 0.0
2017-Dec-01 00:00N 34°03' E 131°44'0 0.0
2017-Nov-30 23:30N 34°03' E 131°44'0 0.0
2017-Nov-30 23:00N 34°03' E 131°44'0 0.0
2017-Nov-30 22:30N 34°03' E 131°44'1 2.1
2017-Nov-30 22:00N 34°03' E 131°43'  
Track history (hours):
 
Tides and Currents Weather Stations Pressure Air Temp Water Temp Dewpoint Dewpoint Depression Visibility Wind Speed Wind Dir Waves Ship Positions

Tosei

Last reported at 2017-Dec-10 21:41 UTC. Time now 2017-Dec-14 00:17 UTC.
Position N 35°38' E 139°59'.

Length 85 m; draft 4 m.

MMSI: 431400992.

Date/timePositionNaut miles runAvg speedWind from/ knotsBaromVisibWave heightAir tempDewpointWater temp
2017-Dec-10 21:41N 35°38' E 139°59'213.7
2017-Dec-10 21:31N 35°36' E 139°59'714.0
2017-Dec-10 21:01N 35°30' E 139°54'714.2
2017-Dec-10 20:31N 35°25' E 139°48'611.7
2017-Dec-10 20:00N 35°20' E 139°44'611.3
2017-Dec-10 19:31N 35°15' E 139°47'713.0
2017-Dec-10 19:01N 35°08' E 139°46'713.4
2017-Dec-10 18:31N 35°02' E 139°42'612.6
2017-Dec-10 18:00N 34°57' E 139°38'814.1
2017-Dec-10 17:28N 34°53' E 139°30'714.8
2017-Dec-10 17:00N 34°51' E 139°22'714.9
2017-Dec-10 16:30N 34°47' E 139°15'714.5
2017-Dec-10 15:59N 34°41' E 139°09'713.6
2017-Dec-10 15:27N 34°36' E 139°02'613.9
2017-Dec-10 15:00N 34°33' E 138°56'913.9
2017-Dec-10 14:23N 34°31' E 138°46'614.5
2017-Dec-10 13:59N 34°31' E 138°39'714.0
2017-Dec-10 13:30N 34°30' E 138°30'33411.9
2017-Dec-09 09:27N 33°24' E 131°56'1514.8
2017-Dec-09 08:24N 33°39' E 131°51'814.6
2017-Dec-09 07:53N 33°46' E 131°48'514.4
2017-Dec-09 07:30N 33°52' E 131°45'714.5
2017-Dec-09 07:00N 33°58' E 131°42'510.3
2017-Dec-09 06:30N 34°03' E 131°44'0 0.7
2017-Dec-09 06:00N 34°03' E 131°44'0 0.0
2017-Dec-09 05:30N 34°03' E 131°44'0 0.0
2017-Dec-09 05:00N 34°03' E 131°44'0 0.0
2017-Dec-09 04:29N 34°03' E 131°44'0 0.0
2017-Dec-09 04:00N 34°03' E 131°44'0 0.0
2017-Dec-09 03:30N 34°03' E 131°44'0 0.0
2017-Dec-09 03:00N 34°03' E 131°44'0 0.0
2017-Dec-09 02:30N 34°03' E 131°44'0 0.0
2017-Dec-09 02:00N 34°03' E 131°44'0 0.0
2017-Dec-09 01:30N 34°03' E 131°44'0 0.0
2017-Dec-09 01:00N 34°03' E 131°44'0 0.0
2017-Dec-09 00:30N 34°03' E 131°44'0 0.0
2017-Dec-09 00:00N 34°03' E 131°44'0 0.0
2017-Dec-08 23:28N 34°03' E 131°44'0 0.0
2017-Dec-08 23:00N 34°03' E 131°44'0 0.0
2017-Dec-08 22:30N 34°03' E 131°44'0 1.0
2017-Dec-08 22:00N 34°03' E 131°44'510.2
2017-Dec-08 21:30N 33°58' E 131°42'713.9
2017-Dec-08 21:00N 33°52' E 131°46'713.8
2017-Dec-08 20:30N 33°46' E 131°48'713.4
2017-Dec-08 19:59N 33°39' E 131°51'612.7
2017-Dec-08 19:30N 33°33' E 131°53'712.6
2017-Dec-08 18:58N 33°27' E 131°56'712.9
2017-Dec-08 18:27N 33°20' E 131°59'34912.5
2017-Dec-07 14:33N 34°31' E 138°51'112.3
2017-Dec-07 14:30N 34°31' E 138°52'510.8
2017-Dec-07 14:00N 34°33' E 138°58'712.6
2017-Dec-07 13:28N 34°38' E 139°04'913.1
2017-Dec-07 12:45N 34°45' E 139°12'1013.3
2017-Dec-07 11:59N 34°51' E 139°21'713.3
2017-Dec-07 11:27N 34°56' E 139°28'613.0
2017-Dec-07 11:00N 35°00' E 139°33'713.6
2017-Dec-07 10:31N 35°05' E 139°39'714.2
2017-Dec-07 10:01N 35°10' E 139°45'612.5
2017-Dec-07 09:30N 35°16' E 139°46'612.2
2017-Dec-07 09:00N 35°22' E 139°42'713.2
2017-Dec-07 08:30N 35°27' E 139°47'714.2
2017-Dec-07 08:00N 35°32' E 139°53'713.8
2017-Dec-07 07:30N 35°38' E 139°58'3 0.4
2017-Dec-06 23:42N 35°41' E 139°59'1 3.7
2017-Dec-06 23:22N 35°39' E 139°59'412.8
2017-Dec-06 23:01N 35°35' E 139°58'713.4
2017-Dec-06 22:30N 35°30' E 139°53'713.4
2017-Dec-06 22:01N 35°25' E 139°47'510.8
2017-Dec-06 21:30N 35°20' E 139°45'5 9.9
2017-Dec-06 21:00N 35°16' E 139°47'  
2017-Dec-03 14:12N 34°32' E 138°51'212.3
2017-Dec-03 14:00N 34°32' E 138°54'712.3
2017-Dec-03 13:26N 34°36' E 139°01'512.6
2017-Dec-03 13:00N 34°40' E 139°06'612.3
2017-Dec-03 12:30N 34°44' E 139°11'612.3
2017-Dec-03 11:58N 34°48' E 139°18'612.7
2017-Dec-03 11:29N 34°52' E 139°23'613.0
2017-Dec-03 11:00N 34°56' E 139°29'612.8
2017-Dec-03 10:30N 35°01' E 139°34'713.3
2017-Dec-03 10:00N 35°05' E 139°40'714.5
2017-Dec-03 09:30N 35°11' E 139°46'612.9
2017-Dec-03 09:00N 35°17' E 139°45'612.5
2017-Dec-03 08:30N 35°23' E 139°42'713.8
2017-Dec-03 08:00N 35°28' E 139°49'814.2
2017-Dec-03 07:29N 35°33' E 139°55'713.3
2017-Dec-03 06:59N 35°39' E 139°59'2 0.3
2017-Dec-03 00:09N 35°41' E 139°59'0 0.0
2017-Dec-02 23:59N 35°41' E 139°59'0 0.0
2017-Dec-02 23:29N 35°41' E 139°59'0 0.0
2017-Dec-02 23:00N 35°41' E 139°59'0 0.0
2017-Dec-02 22:30N 35°41' E 139°59'1 1.0
2017-Dec-02 22:00N 35°40' E 139°59'611.9
2017-Dec-02 21:31N 35°35' E 139°58'713.1
2017-Dec-02 21:01N 35°30' E 139°53'713.2
2017-Dec-02 20:30N 35°25' E 139°47'612.7
2017-Dec-02 20:00N 35°19' E 139°44'611.9
2017-Dec-02 19:30N 35°14' E 139°47'612.7
2017-Dec-02 19:01N 35°07' E 139°45'612.8
2017-Dec-02 18:30N 35°02' E 139°41'713.3
2017-Dec-02 18:00N 34°58' E 139°35'1014.7
2017-Dec-02 17:18N 34°52' E 139°24'715.2
2017-Dec-02 16:51N 34°48' E 139°18'514.0
2017-Dec-02 16:30N 34°45' E 139°13'814.1
2017-Dec-02 15:57N 34°40' E 139°06'713.2
2017-Dec-02 15:26N 34°35' E 138°60'613.6
2017-Dec-02 15:00N 34°32' E 138°54'814.6
2017-Dec-02 14:28N 34°31' E 138°44'714.2
2017-Dec-02 14:00N 34°30' E 138°36'814.3
2017-Dec-02 13:27N 34°29' E 138°27'32912.5
2017-Dec-01 11:09N 33°21' E 131°59'214.8
2017-Dec-01 10:59N 33°23' E 131°58'1814.3
2017-Dec-01 09:42N 33°40' E 131°49'314.1
2017-Dec-01 09:28N 33°43' E 131°47'714.0
2017-Dec-01 09:00N 33°50' E 131°46'714.3
2017-Dec-01 08:30N 33°56' E 131°43'612.1
2017-Dec-01 08:00N 34°02' E 131°42'2 4.5
2017-Dec-01 07:30N 34°03' E 131°44'0 0.0
2017-Dec-01 07:00N 34°03' E 131°44'0 0.0
2017-Dec-01 06:30N 34°03' E 131°44'0 0.0
2017-Dec-01 06:00N 34°03' E 131°44'0 0.0
2017-Dec-01 05:30N 34°03' E 131°44'0 0.0
2017-Dec-01 05:00N 34°03' E 131°44'0 0.0
2017-Dec-01 04:30N 34°03' E 131°44'0 0.0
2017-Dec-01 04:00N 34°03' E 131°44'0 0.0
2017-Dec-01 03:30N 34°03' E 131°44'0 0.0
2017-Dec-01 03:00N 34°03' E 131°44'0 0.0
2017-Dec-01 02:30N 34°03' E 131°44'0 0.0
2017-Dec-01 02:00N 34°03' E 131°44'0 0.0
2017-Dec-01 01:30N 34°03' E 131°44'0 0.0
2017-Dec-01 01:00N 34°03' E 131°44'0 0.0
2017-Dec-01 00:30N 34°03' E 131°44'0 0.0
2017-Dec-01 00:00N 34°03' E 131°44'0 0.0
2017-Nov-30 23:30N 34°03' E 131°44'0 0.0
2017-Nov-30 23:00N 34°03' E 131°44'0 0.0
2017-Nov-30 22:30N 34°03' E 131°44'1 2.1
2017-Nov-30 22:00N 34°03' E 131°43'  

Dump ship's entire track history